Aérodrome :
LOGIN :

S'inscrire | Disclaimer

   EN    FR    IT 

 










Légende :    VFR   VFR Marginal   IFR   IFR Intensif   IFR Très Intensif
Visi : 
Plafond : 
>= 8 km
>= 3000ft
5 à 8 km
1000 à 3000 ft
1500m à 5 km
500 à 1000 ft
800 à 1500m
200 à 500 ft
< 800m
< 200 ft
Symboles :   Orages  Brouillard  Fortes neiges  Fortes précipitations  Vent > 20 kt
SIGMETs :   Divers  Orages  Givrage  Turbulence  Onde Orograph.  Cendres Volcan.






- Altitude de l'aérodrome : 124 ft
- Code IATA : RNS


LFRN - Rennes

DERNIER METAR :
  • 300830Z AUTO VRB02KT CAVOK 11/10 Q1013 NOSIG

METARs EXPIRÉS :
  • 300800Z AUTO VRB01KT CAVOK 10/10 Q1013 NOSIG
  • 300730Z AUTO VRB01KT CAVOK 09/09 Q1013 NOSIG
  • 300700Z AUTO 15003KT 7000 NSC 07/07 Q1013 TEMPO 0300 FG VV///
  • 300630Z AUTO 15003KT 2500 R28/1200U R10/1000U BR NSC 06/06 Q1013 TEMPO VV/// BECMG 9999 NSW
  • 300600Z AUTO 24002KT 0650 0400 R28/0900U R10/1100U FG VV/// 05/05 Q1013 TEMPO 0300 FG

TAF AMD TAF LFRN
Valide du 30 à 06h jusqu'au 01 à 06h UTC


300646Z 3006/0106 VRB03KT 3000 BR NSC
TEMPO 3006/3008 0800 FG
BECMG 3007/3009 8000 NSW
BECMG 3010/3012 22010KT
BECMG 3018/3020 OVC012
TEMPO 3020/0106 21015G25KT 4000 RA BKN005
ATIS : +33 2 99 67 72 50



MET'MAP, la Météo Aéronautique d'un coup d'oeil ! - Copyright ORBIFLY Décembre 2007 - Disclaimer

ORBIFLY MET'MAP TEAM :

Programmation & Développement : Alexandra Zaïnal
Sur une idée originale de : Baudouin d'Aumeries
Soutien technique & logistique : Manuel Goepfert
Assistance : Marc-Olivier Méhu




SOURCES & CREDITS :

   NOAA